sensor_id;sensor_type;location;lat;lon;timestamp;P1;durP1;ratioP1;P2;durP2;ratioP2
24681;SDS011;12802;53.390;-2.328;2023-06-22T00:01:58;9.07;;;6.10;;
24681;SDS011;12802;53.390;-2.328;2023-06-22T00:04:24;9.30;;;6.13;;
24681;SDS011;12802;53.390;-2.328;2023-06-22T00:06:51;7.90;;;5.68;;
24681;SDS011;12802;53.390;-2.328;2023-06-22T00:09:16;9.75;;;5.85;;
24681;SDS011;12802;53.390;-2.328;2023-06-22T00:11:42;9.35;;;5.57;;
24681;SDS011;12802;53.390;-2.328;2023-06-22T00:14:08;8.32;;;6.28;;
24681;SDS011;12802;53.390;-2.328;2023-06-22T00:16:33;8.85;;;5.90;;
24681;SDS011;12802;53.390;-2.328;2023-06-22T00:19:00;7.90;;;5.80;;
24681;SDS011;12802;53.390;-2.328;2023-06-22T00:21:27;10.95;;;6.10;;
24681;SDS011;12802;53.390;-2.328;2023-06-22T00:23:53;8.18;;;6.20;;
24681;SDS011;12802;53.390;-2.328;2023-06-22T00:26:19;9.52;;;6.00;;
24681;SDS011;12802;53.390;-2.328;2023-06-22T00:28:45;7.80;;;6.10;;
24681;SDS011;12802;53.390;-2.328;2023-06-22T00:31:14;9.13;;;5.93;;
24681;SDS011;12802;53.390;-2.328;2023-06-22T00:33:40;8.30;;;5.25;;
24681;SDS011;12802;53.390;-2.328;2023-06-22T00:36:05;11.10;;;6.32;;
24681;SDS011;12802;53.390;-2.328;2023-06-22T00:38:33;11.93;;;5.88;;
24681;SDS011;12802;53.390;-2.328;2023-06-22T00:41:00;9.82;;;5.55;;
24681;SDS011;12802;53.390;-2.328;2023-06-22T00:43:26;8.77;;;5.70;;
24681;SDS011;12802;53.390;-2.328;2023-06-22T00:45:52;8.48;;;6.20;;
24681;SDS011;12802;53.390;-2.328;2023-06-22T00:48:18;10.25;;;5.45;;
24681;SDS011;12802;53.390;-2.328;2023-06-22T00:50:46;9.40;;;6.13;;
24681;SDS011;12802;53.390;-2.328;2023-06-22T00:53:16;11.18;;;6.05;;
24681;SDS011;12802;53.390;-2.328;2023-06-22T00:55:43;7.95;;;5.72;;
24681;SDS011;12802;53.390;-2.328;2023-06-22T00:58:11;10.25;;;6.28;;
24681;SDS011;12802;53.390;-2.328;2023-06-22T01:00:40;8.80;;;5.95;;
24681;SDS011;12802;53.390;-2.328;2023-06-22T01:03:07;9.82;;;6.10;;
24681;SDS011;12802;53.390;-2.328;2023-06-22T01:05:36;7.75;;;6.00;;
24681;SDS011;12802;53.390;-2.328;2023-06-22T01:10:46;9.38;;;6.30;;
24681;SDS011;12802;53.390;-2.328;2023-06-22T01:15:51;11.20;;;6.95;;
24681;SDS011;12802;53.390;-2.328;2023-06-22T01:18:21;12.40;;;6.38;;
24681;SDS011;12802;53.390;-2.328;2023-06-22T01:20:52;9.10;;;6.00;;
24681;SDS011;12802;53.390;-2.328;2023-06-22T01:23:42;11.55;;;6.72;;
24681;SDS011;12802;53.390;-2.328;2023-06-22T01:26:16;9.18;;;6.32;;
24681;SDS011;12802;53.390;-2.328;2023-06-22T01:28:47;8.07;;;6.13;;
24681;SDS011;12802;53.390;-2.328;2023-06-22T01:31:19;10.43;;;6.72;;
24681;SDS011;12802;53.390;-2.328;2023-06-22T01:33:50;7.55;;;6.03;;
24681;SDS011;12802;53.390;-2.328;2023-06-22T01:36:20;10.50;;;6.35;;
24681;SDS011;12802;53.390;-2.328;2023-06-22T01:38:48;10.25;;;6.43;;
24681;SDS011;12802;53.390;-2.328;2023-06-22T01:41:16;10.38;;;6.53;;
24681;SDS011;12802;53.390;-2.328;2023-06-22T01:43:46;10.55;;;6.35;;
24681;SDS011;12802;53.390;-2.328;2023-06-22T01:46:13;11.57;;;6.53;;
24681;SDS011;12802;53.390;-2.328;2023-06-22T01:48:40;10.35;;;6.43;;
24681;SDS011;12802;53.390;-2.328;2023-06-22T01:51:06;9.80;;;6.85;;
24681;SDS011;12802;53.390;-2.328;2023-06-22T01:53:32;11.85;;;6.88;;
24681;SDS011;12802;53.390;-2.328;2023-06-22T01:55:58;9.52;;;6.50;;
24681;SDS011;12802;53.390;-2.328;2023-06-22T01:58:28;11.20;;;6.88;;
24681;SDS011;12802;53.390;-2.328;2023-06-22T02:01:17;8.13;;;5.93;;
24681;SDS011;12802;53.390;-2.328;2023-06-22T02:03:47;12.07;;;7.32;;
24681;SDS011;12802;53.390;-2.328;2023-06-22T02:06:21;9.13;;;7.70;;
24681;SDS011;12802;53.390;-2.328;2023-06-22T02:08:55;12.00;;;7.32;;
24681;SDS011;12802;53.390;-2.328;2023-06-22T02:11:26;8.45;;;6.57;;
24681;SDS011;12802;53.390;-2.328;2023-06-22T02:13:54;11.25;;;6.70;;
24681;SDS011;12802;53.390;-2.328;2023-06-22T02:16:23;11.27;;;6.53;;
24681;SDS011;12802;53.390;-2.328;2023-06-22T02:18:49;9.13;;;6.65;;
24681;SDS011;12802;53.390;-2.328;2023-06-22T02:21:19;10.55;;;6.75;;
24681;SDS011;12802;53.390;-2.328;2023-06-22T02:26:12;10.32;;;7.05;;
24681;SDS011;12802;53.390;-2.328;2023-06-22T02:28:38;8.23;;;6.70;;
24681;SDS011;12802;53.390;-2.328;2023-06-22T02:31:03;12.05;;;7.40;;
24681;SDS011;12802;53.390;-2.328;2023-06-22T02:33:29;10.23;;;6.88;;
24681;SDS011;12802;53.390;-2.328;2023-06-22T02:35:55;10.00;;;6.60;;
24681;SDS011;12802;53.390;-2.328;2023-06-22T02:38:21;8.10;;;6.43;;
24681;SDS011;12802;53.390;-2.328;2023-06-22T02:40:50;10.80;;;7.07;;
24681;SDS011;12802;53.390;-2.328;2023-06-22T02:43:17;11.45;;;7.00;;
24681;SDS011;12802;53.390;-2.328;2023-06-22T02:45:43;10.40;;;7.50;;
24681;SDS011;12802;53.390;-2.328;2023-06-22T02:48:10;9.85;;;6.80;;
24681;SDS011;12802;53.390;-2.328;2023-06-22T02:50:36;10.60;;;7.57;;
24681;SDS011;12802;53.390;-2.328;2023-06-22T02:53:03;14.52;;;7.40;;
24681;SDS011;12802;53.390;-2.328;2023-06-22T02:55:34;9.35;;;7.93;;
24681;SDS011;12802;53.390;-2.328;2023-06-22T02:58:00;9.95;;;7.22;;
24681;SDS011;12802;53.390;-2.328;2023-06-22T03:00:31;10.98;;;7.03;;
24681;SDS011;12802;53.390;-2.328;2023-06-22T03:02:57;9.93;;;7.20;;
24681;SDS011;12802;53.390;-2.328;2023-06-22T03:05:23;9.30;;;7.03;;
24681;SDS011;12802;53.390;-2.328;2023-06-22T03:07:49;9.80;;;7.88;;
24681;SDS011;12802;53.390;-2.328;2023-06-22T03:10:15;10.50;;;8.27;;
24681;SDS011;12802;53.390;-2.328;2023-06-22T03:12:42;10.55;;;7.82;;
24681;SDS011;12802;53.390;-2.328;2023-06-22T03:15:09;10.50;;;7.68;;
24681;SDS011;12802;53.390;-2.328;2023-06-22T03:17:37;11.63;;;8.05;;
24681;SDS011;12802;53.390;-2.328;2023-06-22T03:20:04;9.70;;;7.47;;
24681;SDS011;12802;53.390;-2.328;2023-06-22T03:22:36;11.48;;;8.18;;
24681;SDS011;12802;53.390;-2.328;2023-06-22T03:25:02;12.07;;;7.78;;
24681;SDS011;12802;53.390;-2.328;2023-06-22T03:27:28;11.65;;;8.43;;
24681;SDS011;12802;53.390;-2.328;2023-06-22T03:29:56;12.52;;;8.23;;
24681;SDS011;12802;53.390;-2.328;2023-06-22T03:32:22;10.98;;;8.07;;
24681;SDS011;12802;53.390;-2.328;2023-06-22T03:34:48;9.43;;;7.10;;
24681;SDS011;12802;53.390;-2.328;2023-06-22T03:37:15;10.63;;;8.05;;
24681;SDS011;12802;53.390;-2.328;2023-06-22T03:39:41;11.73;;;7.63;;
24681;SDS011;12802;53.390;-2.328;2023-06-22T03:42:07;9.02;;;7.72;;
24681;SDS011;12802;53.390;-2.328;2023-06-22T03:44:34;9.70;;;7.30;;
24681;SDS011;12802;53.390;-2.328;2023-06-22T03:47:02;9.05;;;6.93;;
24681;SDS011;12802;53.390;-2.328;2023-06-22T03:49:29;12.48;;;7.82;;
24681;SDS011;12802;53.390;-2.328;2023-06-22T03:51:54;11.50;;;8.23;;
24681;SDS011;12802;53.390;-2.328;2023-06-22T03:54:20;11.73;;;8.48;;
24681;SDS011;12802;53.390;-2.328;2023-06-22T03:56:46;12.80;;;8.93;;
24681;SDS011;12802;53.390;-2.328;2023-06-22T03:59:11;11.25;;;7.38;;
24681;SDS011;12802;53.390;-2.328;2023-06-22T04:01:37;14.35;;;7.65;;
24681;SDS011;12802;53.390;-2.328;2023-06-22T04:04:03;16.95;;;7.60;;
24681;SDS011;12802;53.390;-2.328;2023-06-22T04:06:29;9.50;;;7.47;;
24681;SDS011;12802;53.390;-2.328;2023-06-22T04:08:54;13.18;;;7.45;;
24681;SDS011;12802;53.390;-2.328;2023-06-22T04:11:20;12.15;;;7.15;;
24681;SDS011;12802;53.390;-2.328;2023-06-22T04:13:46;9.82;;;7.90;;
24681;SDS011;12802;53.390;-2.328;2023-06-22T04:16:13;9.60;;;6.68;;
24681;SDS011;12802;53.390;-2.328;2023-06-22T04:18:39;9.63;;;8.63;;
24681;SDS011;12802;53.390;-2.328;2023-06-22T04:21:05;10.18;;;7.32;;
24681;SDS011;12802;53.390;-2.328;2023-06-22T04:23:31;9.90;;;7.40;;
24681;SDS011;12802;53.390;-2.328;2023-06-22T04:25:57;9.20;;;7.55;;
24681;SDS011;12802;53.390;-2.328;2023-06-22T04:28:24;12.60;;;8.73;;
24681;SDS011;12802;53.390;-2.328;2023-06-22T04:30:50;13.30;;;9.13;;
24681;SDS011;12802;53.390;-2.328;2023-06-22T04:33:16;14.45;;;8.50;;
24681;SDS011;12802;53.390;-2.328;2023-06-22T04:35:44;14.10;;;9.43;;
24681;SDS011;12802;53.390;-2.328;2023-06-22T04:38:11;14.07;;;9.00;;
24681;SDS011;12802;53.390;-2.328;2023-06-22T04:40:38;9.75;;;7.75;;
24681;SDS011;12802;53.390;-2.328;2023-06-22T04:43:05;11.50;;;8.50;;
24681;SDS011;12802;53.390;-2.328;2023-06-22T04:45:32;16.10;;;9.20;;
24681;SDS011;12802;53.390;-2.328;2023-06-22T04:47:58;13.50;;;8.52;;
24681;SDS011;12802;53.390;-2.328;2023-06-22T04:50:24;11.82;;;8.45;;
24681;SDS011;12802;53.390;-2.328;2023-06-22T04:52:50;14.70;;;9.65;;
24681;SDS011;12802;53.390;-2.328;2023-06-22T04:55:16;12.55;;;8.40;;
24681;SDS011;12802;53.390;-2.328;2023-06-22T04:57:46;14.68;;;8.93;;
24681;SDS011;12802;53.390;-2.328;2023-06-22T05:00:22;12.90;;;8.73;;
24681;SDS011;12802;53.390;-2.328;2023-06-22T05:02:48;10.25;;;8.32;;
24681;SDS011;12802;53.390;-2.328;2023-06-22T05:05:15;14.85;;;9.25;;
24681;SDS011;12802;53.390;-2.328;2023-06-22T05:07:42;10.65;;;8.63;;
24681;SDS011;12802;53.390;-2.328;2023-06-22T05:10:09;13.50;;;8.70;;
24681;SDS011;12802;53.390;-2.328;2023-06-22T05:12:36;10.80;;;9.27;;
24681;SDS011;12802;53.390;-2.328;2023-06-22T05:15:02;11.32;;;8.80;;
24681;SDS011;12802;53.390;-2.328;2023-06-22T05:17:28;16.55;;;8.98;;
24681;SDS011;12802;53.390;-2.328;2023-06-22T05:19:54;14.77;;;8.88;;
24681;SDS011;12802;53.390;-2.328;2023-06-22T05:22:20;16.52;;;10.80;;
24681;SDS011;12802;53.390;-2.328;2023-06-22T05:24:47;14.57;;;10.20;;
24681;SDS011;12802;53.390;-2.328;2023-06-22T05:27:13;13.02;;;10.45;;
24681;SDS011;12802;53.390;-2.328;2023-06-22T05:29:39;12.75;;;9.60;;
24681;SDS011;12802;53.390;-2.328;2023-06-22T05:32:05;18.35;;;10.65;;
24681;SDS011;12802;53.390;-2.328;2023-06-22T05:34:31;13.85;;;9.50;;
24681;SDS011;12802;53.390;-2.328;2023-06-22T05:36:57;13.57;;;10.93;;
24681;SDS011;12802;53.390;-2.328;2023-06-22T05:39:26;18.15;;;11.43;;
24681;SDS011;12802;53.390;-2.328;2023-06-22T05:41:52;17.85;;;10.35;;
24681;SDS011;12802;53.390;-2.328;2023-06-22T05:44:18;19.15;;;10.23;;
24681;SDS011;12802;53.390;-2.328;2023-06-22T05:46:44;17.55;;;10.43;;
24681;SDS011;12802;53.390;-2.328;2023-06-22T05:49:11;16.58;;;11.45;;
24681;SDS011;12802;53.390;-2.328;2023-06-22T05:51:38;14.48;;;10.43;;
24681;SDS011;12802;53.390;-2.328;2023-06-22T05:54:04;14.63;;;10.90;;
24681;SDS011;12802;53.390;-2.328;2023-06-22T05:56:30;15.85;;;11.98;;
24681;SDS011;12802;53.390;-2.328;2023-06-22T05:58:56;17.00;;;10.82;;
24681;SDS011;12802;53.390;-2.328;2023-06-22T06:01:22;17.85;;;12.07;;
24681;SDS011;12802;53.390;-2.328;2023-06-22T06:03:48;18.17;;;11.65;;
24681;SDS011;12802;53.390;-2.328;2023-06-22T06:06:15;18.48;;;11.05;;
24681;SDS011;12802;53.390;-2.328;2023-06-22T06:08:41;16.77;;;11.57;;
24681;SDS011;12802;53.390;-2.328;2023-06-22T06:11:07;22.00;;;13.05;;
24681;SDS011;12802;53.390;-2.328;2023-06-22T06:13:33;15.50;;;12.23;;
24681;SDS011;12802;53.390;-2.328;2023-06-22T06:15:58;13.52;;;10.95;;
24681;SDS011;12802;53.390;-2.328;2023-06-22T06:18:25;19.98;;;12.88;;
24681;SDS011;12802;53.390;-2.328;2023-06-22T06:20:51;18.20;;;12.02;;
24681;SDS011;12802;53.390;-2.328;2023-06-22T06:23:18;20.85;;;11.93;;
24681;SDS011;12802;53.390;-2.328;2023-06-22T06:25:43;16.35;;;11.70;;
24681;SDS011;12802;53.390;-2.328;2023-06-22T06:28:09;21.02;;;11.50;;
24681;SDS011;12802;53.390;-2.328;2023-06-22T06:30:35;15.18;;;11.27;;
24681;SDS011;12802;53.390;-2.328;2023-06-22T06:33:02;17.88;;;11.63;;
24681;SDS011;12802;53.390;-2.328;2023-06-22T06:35:34;14.43;;;10.95;;
24681;SDS011;12802;53.390;-2.328;2023-06-22T06:38:00;17.40;;;11.80;;
24681;SDS011;12802;53.390;-2.328;2023-06-22T06:40:25;18.80;;;12.18;;
24681;SDS011;12802;53.390;-2.328;2023-06-22T06:42:51;17.77;;;11.07;;
24681;SDS011;12802;53.390;-2.328;2023-06-22T06:45:18;15.23;;;11.45;;
24681;SDS011;12802;53.390;-2.328;2023-06-22T06:47:45;15.95;;;10.45;;
24681;SDS011;12802;53.390;-2.328;2023-06-22T06:50:12;16.88;;;12.02;;
24681;SDS011;12802;53.390;-2.328;2023-06-22T06:52:38;20.20;;;12.27;;
24681;SDS011;12802;53.390;-2.328;2023-06-22T06:55:04;17.33;;;11.80;;
24681;SDS011;12802;53.390;-2.328;2023-06-22T06:57:34;20.15;;;10.88;;
24681;SDS011;12802;53.390;-2.328;2023-06-22T07:00:02;15.38;;;10.27;;
24681;SDS011;12802;53.390;-2.328;2023-06-22T07:02:33;14.05;;;10.07;;
24681;SDS011;12802;53.390;-2.328;2023-06-22T07:04:59;16.77;;;11.02;;
24681;SDS011;12802;53.390;-2.328;2023-06-22T07:07:25;14.45;;;10.98;;
24681;SDS011;12802;53.390;-2.328;2023-06-22T07:09:51;12.20;;;9.15;;
24681;SDS011;12802;53.390;-2.328;2023-06-22T07:12:17;16.95;;;10.57;;
24681;SDS011;12802;53.390;-2.328;2023-06-22T07:14:42;16.15;;;9.55;;
24681;SDS011;12802;53.390;-2.328;2023-06-22T07:17:08;12.25;;;10.00;;
24681;SDS011;12802;53.390;-2.328;2023-06-22T07:19:34;16.23;;;9.52;;
24681;SDS011;12802;53.390;-2.328;2023-06-22T07:21:59;12.45;;;8.43;;
24681;SDS011;12802;53.390;-2.328;2023-06-22T07:24:25;12.90;;;9.25;;
24681;SDS011;12802;53.390;-2.328;2023-06-22T07:26:52;11.10;;;9.90;;
24681;SDS011;12802;53.390;-2.328;2023-06-22T07:29:18;16.98;;;9.85;;
24681;SDS011;12802;53.390;-2.328;2023-06-22T07:31:48;15.70;;;9.60;;
24681;SDS011;12802;53.390;-2.328;2023-06-22T07:34:16;15.15;;;10.15;;
24681;SDS011;12802;53.390;-2.328;2023-06-22T07:36:42;14.95;;;10.63;;
24681;SDS011;12802;53.390;-2.328;2023-06-22T07:39:09;12.60;;;10.23;;
24681;SDS011;12802;53.390;-2.328;2023-06-22T07:41:35;14.60;;;9.45;;
24681;SDS011;12802;53.390;-2.328;2023-06-22T07:44:02;14.57;;;9.30;;
24681;SDS011;12802;53.390;-2.328;2023-06-22T07:46:28;13.23;;;9.48;;
24681;SDS011;12802;53.390;-2.328;2023-06-22T07:48:55;10.43;;;9.05;;
24681;SDS011;12802;53.390;-2.328;2023-06-22T07:51:22;13.95;;;10.30;;
24681;SDS011;12802;53.390;-2.328;2023-06-22T07:53:48;13.88;;;10.30;;
24681;SDS011;12802;53.390;-2.328;2023-06-22T07:56:13;12.95;;;9.77;;
24681;SDS011;12802;53.390;-2.328;2023-06-22T07:58:44;12.70;;;8.98;;
24681;SDS011;12802;53.390;-2.328;2023-06-22T08:01:11;16.42;;;11.13;;
24681;SDS011;12802;53.390;-2.328;2023-06-22T08:03:37;13.50;;;10.73;;
24681;SDS011;12802;53.390;-2.328;2023-06-22T08:06:03;14.57;;;10.27;;
24681;SDS011;12802;53.390;-2.328;2023-06-22T08:08:29;14.40;;;9.90;;
24681;SDS011;12802;53.390;-2.328;2023-06-22T08:10:54;17.40;;;10.50;;
24681;SDS011;12802;53.390;-2.328;2023-06-22T08:13:20;16.38;;;11.35;;
24681;SDS011;12802;53.390;-2.328;2023-06-22T08:15:46;14.13;;;10.63;;
24681;SDS011;12802;53.390;-2.328;2023-06-22T08:18:11;17.55;;;11.68;;
24681;SDS011;12802;53.390;-2.328;2023-06-22T08:20:37;16.20;;;10.20;;
24681;SDS011;12802;53.390;-2.328;2023-06-22T08:23:03;12.40;;;10.63;;
24681;SDS011;12802;53.390;-2.328;2023-06-22T08:25:32;12.73;;;9.80;;
24681;SDS011;12802;53.390;-2.328;2023-06-22T08:27:59;20.27;;;10.95;;
24681;SDS011;12802;53.390;-2.328;2023-06-22T08:30:25;18.20;;;11.23;;
24681;SDS011;12802;53.390;-2.328;2023-06-22T08:32:51;18.33;;;11.07;;
24681;SDS011;12802;53.390;-2.328;2023-06-22T08:35:16;15.10;;;10.20;;
24681;SDS011;12802;53.390;-2.328;2023-06-22T08:37:42;14.82;;;10.38;;
24681;SDS011;12802;53.390;-2.328;2023-06-22T08:40:09;13.10;;;10.20;;
24681;SDS011;12802;53.390;-2.328;2023-06-22T08:42:35;13.00;;;9.82;;
24681;SDS011;12802;53.390;-2.328;2023-06-22T08:45:02;13.00;;;10.38;;
24681;SDS011;12802;53.390;-2.328;2023-06-22T08:47:28;17.75;;;10.90;;
24681;SDS011;12802;53.390;-2.328;2023-06-22T08:49:53;14.60;;;10.15;;
24681;SDS011;12802;53.390;-2.328;2023-06-22T08:52:19;15.48;;;11.13;;
24681;SDS011;12802;53.390;-2.328;2023-06-22T08:54:48;13.85;;;10.27;;
24681;SDS011;12802;53.390;-2.328;2023-06-22T08:57:14;11.18;;;8.80;;
24681;SDS011;12802;53.390;-2.328;2023-06-22T08:59:41;13.48;;;8.82;;
24681;SDS011;12802;53.390;-2.328;2023-06-22T09:02:07;14.10;;;8.43;;
24681;SDS011;12802;53.390;-2.328;2023-06-22T09:04:33;14.55;;;8.43;;
24681;SDS011;12802;53.390;-2.328;2023-06-22T09:07:01;12.03;;;8.13;;
24681;SDS011;12802;53.390;-2.328;2023-06-22T09:09:27;13.73;;;8.80;;
24681;SDS011;12802;53.390;-2.328;2023-06-22T09:11:53;15.35;;;9.63;;
24681;SDS011;12802;53.390;-2.328;2023-06-22T09:14:19;13.05;;;9.02;;
24681;SDS011;12802;53.390;-2.328;2023-06-22T09:16:44;13.20;;;8.60;;
24681;SDS011;12802;53.390;-2.328;2023-06-22T09:19:10;11.25;;;8.02;;
24681;SDS011;12802;53.390;-2.328;2023-06-22T09:21:36;13.57;;;9.30;;
24681;SDS011;12802;53.390;-2.328;2023-06-22T09:24:02;11.40;;;7.65;;
24681;SDS011;12802;53.390;-2.328;2023-06-22T09:26:28;11.15;;;7.75;;
24681;SDS011;12802;53.390;-2.328;2023-06-22T09:28:54;11.15;;;7.82;;
24681;SDS011;12802;53.390;-2.328;2023-06-22T09:31:20;12.73;;;7.72;;
24681;SDS011;12802;53.390;-2.328;2023-06-22T09:33:51;13.75;;;7.93;;
24681;SDS011;12802;53.390;-2.328;2023-06-22T09:36:18;9.93;;;7.43;;
24681;SDS011;12802;53.390;-2.328;2023-06-22T09:38:43;10.57;;;7.57;;
24681;SDS011;12802;53.390;-2.328;2023-06-22T09:41:09;13.52;;;8.00;;
24681;SDS011;12802;53.390;-2.328;2023-06-22T09:43:35;13.02;;;7.15;;
24681;SDS011;12802;53.390;-2.328;2023-06-22T09:46:01;9.85;;;6.68;;
24681;SDS011;12802;53.390;-2.328;2023-06-22T09:48:27;8.65;;;6.15;;
24681;SDS011;12802;53.390;-2.328;2023-06-22T09:50:54;10.85;;;6.13;;
24681;SDS011;12802;53.390;-2.328;2023-06-22T09:53:20;12.02;;;6.55;;
24681;SDS011;12802;53.390;-2.328;2023-06-22T09:55:46;8.85;;;6.13;;
24681;SDS011;12802;53.390;-2.328;2023-06-22T09:58:12;9.00;;;5.65;;
24681;SDS011;12802;53.390;-2.328;2023-06-22T10:00:38;9.63;;;6.75;;
24681;SDS011;12802;53.390;-2.328;2023-06-22T10:03:03;10.07;;;6.35;;
24681;SDS011;12802;53.390;-2.328;2023-06-22T10:05:29;8.65;;;5.90;;
24681;SDS011;12802;53.390;-2.328;2023-06-22T10:07:55;10.85;;;5.45;;
24681;SDS011;12802;53.390;-2.328;2023-06-22T10:10:20;9.27;;;5.40;;
24681;SDS011;12802;53.390;-2.328;2023-06-22T10:12:47;9.07;;;5.43;;
24681;SDS011;12802;53.390;-2.328;2023-06-22T10:15:20;7.30;;;5.13;;
24681;SDS011;12802;53.390;-2.328;2023-06-22T10:17:46;7.78;;;5.28;;
24681;SDS011;12802;53.390;-2.328;2023-06-22T10:20:12;7.57;;;5.45;;
24681;SDS011;12802;53.390;-2.328;2023-06-22T10:22:39;9.93;;;5.82;;
24681;SDS011;12802;53.390;-2.328;2023-06-22T10:25:06;8.27;;;4.72;;
24681;SDS011;12802;53.390;-2.328;2023-06-22T10:27:32;7.65;;;4.57;;
24681;SDS011;12802;53.390;-2.328;2023-06-22T10:29:58;6.97;;;4.50;;
24681;SDS011;12802;53.390;-2.328;2023-06-22T10:32:24;6.15;;;3.67;;
24681;SDS011;12802;53.390;-2.328;2023-06-22T10:34:51;7.63;;;4.38;;
24681;SDS011;12802;53.390;-2.328;2023-06-22T10:37:17;6.68;;;3.97;;
24681;SDS011;12802;53.390;-2.328;2023-06-22T10:39:43;6.75;;;4.47;;
24681;SDS011;12802;53.390;-2.328;2023-06-22T10:42:09;7.28;;;4.47;;
24681;SDS011;12802;53.390;-2.328;2023-06-22T10:44:35;6.32;;;4.68;;
24681;SDS011;12802;53.390;-2.328;2023-06-22T10:47:01;8.63;;;4.57;;
24681;SDS011;12802;53.390;-2.328;2023-06-22T10:49:27;6.35;;;4.40;;
24681;SDS011;12802;53.390;-2.328;2023-06-22T10:51:53;7.03;;;4.90;;
24681;SDS011;12802;53.390;-2.328;2023-06-22T10:54:19;10.68;;;4.75;;
24681;SDS011;12802;53.390;-2.328;2023-06-22T10:56:45;7.68;;;4.65;;
24681;SDS011;12802;53.390;-2.328;2023-06-22T10:59:11;5.22;;;4.00;;
24681;SDS011;12802;53.390;-2.328;2023-06-22T11:01:37;10.10;;;4.05;;
24681;SDS011;12802;53.390;-2.328;2023-06-22T11:04:03;9.05;;;3.80;;
24681;SDS011;12802;53.390;-2.328;2023-06-22T11:06:29;5.30;;;3.63;;
24681;SDS011;12802;53.390;-2.328;2023-06-22T11:08:55;6.32;;;3.80;;
24681;SDS011;12802;53.390;-2.328;2023-06-22T11:11:21;6.47;;;3.97;;
24681;SDS011;12802;53.390;-2.328;2023-06-22T11:13:46;4.45;;;3.35;;
24681;SDS011;12802;53.390;-2.328;2023-06-22T11:16:12;18.23;;;12.15;;
24681;SDS011;12802;53.390;-2.328;2023-06-22T11:18:38;7.68;;;3.80;;
24681;SDS011;12802;53.390;-2.328;2023-06-22T11:21:03;5.95;;;2.90;;
24681;SDS011;12802;53.390;-2.328;2023-06-22T11:23:29;5.25;;;3.17;;
24681;SDS011;12802;53.390;-2.328;2023-06-22T11:25:55;6.60;;;3.47;;
24681;SDS011;12802;53.390;-2.328;2023-06-22T11:28:21;5.70;;;3.78;;
24681;SDS011;12802;53.390;-2.328;2023-06-22T11:30:46;7.18;;;3.58;;
24681;SDS011;12802;53.390;-2.328;2023-06-22T11:33:12;4.40;;;3.25;;
24681;SDS011;12802;53.390;-2.328;2023-06-22T11:35:38;9.05;;;3.38;;
24681;SDS011;12802;53.390;-2.328;2023-06-22T11:38:03;8.15;;;3.38;;
24681;SDS011;12802;53.390;-2.328;2023-06-22T11:40:30;8.55;;;3.60;;
24681;SDS011;12802;53.390;-2.328;2023-06-22T11:42:56;6.68;;;3.63;;
24681;SDS011;12802;53.390;-2.328;2023-06-22T11:45:22;5.13;;;3.72;;
24681;SDS011;12802;53.390;-2.328;2023-06-22T11:47:47;10.18;;;3.70;;
24681;SDS011;12802;53.390;-2.328;2023-06-22T11:50:13;6.97;;;3.38;;
24681;SDS011;12802;53.390;-2.328;2023-06-22T11:52:39;4.45;;;3.42;;
24681;SDS011;12802;53.390;-2.328;2023-06-22T11:55:06;5.60;;;3.42;;
24681;SDS011;12802;53.390;-2.328;2023-06-22T11:57:35;7.53;;;3.78;;
24681;SDS011;12802;53.390;-2.328;2023-06-22T12:00:03;5.18;;;3.13;;
24681;SDS011;12802;53.390;-2.328;2023-06-22T12:02:43;5.32;;;3.40;;
24681;SDS011;12802;53.390;-2.328;2023-06-22T12:05:10;6.47;;;3.58;;
24681;SDS011;12802;53.390;-2.328;2023-06-22T12:07:36;10.48;;;3.53;;
24681;SDS011;12802;53.390;-2.328;2023-06-22T12:10:02;9.52;;;3.72;;
24681;SDS011;12802;53.390;-2.328;2023-06-22T12:12:29;5.68;;;3.25;;
24681;SDS011;12802;53.390;-2.328;2023-06-22T12:14:54;4.93;;;3.30;;
24681;SDS011;12802;53.390;-2.328;2023-06-22T12:17:20;7.32;;;3.38;;
24681;SDS011;12802;53.390;-2.328;2023-06-22T12:19:46;7.70;;;3.20;;
24681;SDS011;12802;53.390;-2.328;2023-06-22T12:22:12;4.68;;;3.00;;
24681;SDS011;12802;53.390;-2.328;2023-06-22T12:24:37;6.30;;;3.45;;
24681;SDS011;12802;53.390;-2.328;2023-06-22T12:27:03;5.10;;;3.08;;
24681;SDS011;12802;53.390;-2.328;2023-06-22T12:29:29;7.47;;;3.33;;
24681;SDS011;12802;53.390;-2.328;2023-06-22T12:31:55;8.05;;;3.80;;
24681;SDS011;12802;53.390;-2.328;2023-06-22T12:34:21;7.45;;;3.20;;
24681;SDS011;12802;53.390;-2.328;2023-06-22T12:36:47;5.10;;;3.58;;
24681;SDS011;12802;53.390;-2.328;2023-06-22T12:39:14;6.65;;;3.80;;
24681;SDS011;12802;53.390;-2.328;2023-06-22T12:41:39;6.90;;;3.83;;
24681;SDS011;12802;53.390;-2.328;2023-06-22T12:44:05;6.93;;;3.63;;
24681;SDS011;12802;53.390;-2.328;2023-06-22T12:46:31;5.93;;;3.72;;
24681;SDS011;12802;53.390;-2.328;2023-06-22T12:49:02;6.05;;;3.35;;
24681;SDS011;12802;53.390;-2.328;2023-06-22T12:51:29;6.88;;;3.45;;
24681;SDS011;12802;53.390;-2.328;2023-06-22T12:53:55;5.00;;;3.35;;
24681;SDS011;12802;53.390;-2.328;2023-06-22T12:56:21;6.63;;;3.88;;
24681;SDS011;12802;53.390;-2.328;2023-06-22T12:58:47;9.77;;;4.00;;
24681;SDS011;12802;53.390;-2.328;2023-06-22T13:01:13;5.53;;;3.25;;
24681;SDS011;12802;53.390;-2.328;2023-06-22T13:03:39;7.78;;;3.95;;
24681;SDS011;12802;53.390;-2.328;2023-06-22T13:06:07;5.82;;;3.40;;
24681;SDS011;12802;53.390;-2.328;2023-06-22T13:08:32;8.13;;;3.30;;
24681;SDS011;12802;53.390;-2.328;2023-06-22T13:10:58;3.90;;;3.00;;
24681;SDS011;12802;53.390;-2.328;2023-06-22T13:13:25;5.38;;;3.50;;
24681;SDS011;12802;53.390;-2.328;2023-06-22T13:15:52;7.43;;;3.72;;
24681;SDS011;12802;53.390;-2.328;2023-06-22T13:18:19;7.03;;;3.33;;
24681;SDS011;12802;53.390;-2.328;2023-06-22T13:20:45;5.28;;;3.45;;
24681;SDS011;12802;53.390;-2.328;2023-06-22T13:23:11;6.85;;;3.58;;
24681;SDS011;12802;53.390;-2.328;2023-06-22T13:25:37;9.20;;;3.40;;
24681;SDS011;12802;53.390;-2.328;2023-06-22T13:28:04;9.30;;;3.38;;
24681;SDS011;12802;53.390;-2.328;2023-06-22T13:30:30;6.55;;;3.53;;
24681;SDS011;12802;53.390;-2.328;2023-06-22T13:32:57;3.97;;;3.08;;
24681;SDS011;12802;53.390;-2.328;2023-06-22T13:35:23;5.50;;;3.13;;
24681;SDS011;12802;53.390;-2.328;2023-06-22T13:37:49;4.60;;;3.03;;
24681;SDS011;12802;53.390;-2.328;2023-06-22T13:40:15;4.25;;;2.80;;
24681;SDS011;12802;53.390;-2.328;2023-06-22T13:42:41;6.75;;;2.85;;
24681;SDS011;12802;53.390;-2.328;2023-06-22T13:45:08;4.57;;;3.00;;
24681;SDS011;12802;53.390;-2.328;2023-06-22T13:47:36;7.35;;;2.72;;
24681;SDS011;12802;53.390;-2.328;2023-06-22T13:50:02;5.40;;;2.95;;
24681;SDS011;12802;53.390;-2.328;2023-06-22T13:52:29;5.43;;;3.33;;
24681;SDS011;12802;53.390;-2.328;2023-06-22T13:54:55;8.00;;;3.28;;
24681;SDS011;12802;53.390;-2.328;2023-06-22T13:57:21;4.95;;;3.10;;
24681;SDS011;12802;53.390;-2.328;2023-06-22T13:59:47;6.65;;;3.30;;
24681;SDS011;12802;53.390;-2.328;2023-06-22T14:02:13;8.13;;;2.80;;
24681;SDS011;12802;53.390;-2.328;2023-06-22T14:04:40;7.57;;;3.00;;
24681;SDS011;12802;53.390;-2.328;2023-06-22T14:07:06;4.68;;;3.22;;
24681;SDS011;12802;53.390;-2.328;2023-06-22T14:09:32;8.77;;;3.03;;
24681;SDS011;12802;53.390;-2.328;2023-06-22T14:12:02;4.70;;;2.80;;
24681;SDS011;12802;53.390;-2.328;2023-06-22T14:14:28;7.70;;;3.42;;
24681;SDS011;12802;53.390;-2.328;2023-06-22T14:16:54;4.88;;;3.17;;
24681;SDS011;12802;53.390;-2.328;2023-06-22T14:19:21;6.30;;;2.83;;
24681;SDS011;12802;53.390;-2.328;2023-06-22T14:21:47;4.75;;;3.13;;
24681;SDS011;12802;53.390;-2.328;2023-06-22T14:24:13;5.72;;;2.97;;
24681;SDS011;12802;53.390;-2.328;2023-06-22T14:26:39;6.75;;;3.15;;
24681;SDS011;12802;53.390;-2.328;2023-06-22T14:29:05;4.72;;;2.80;;
24681;SDS011;12802;53.390;-2.328;2023-06-22T14:31:31;5.57;;;3.20;;